Time;durP1;ratioP1;P1;durP2;ratioP2;P2;SDS_P1;SDS_P2;PMS_P1;PMS_P2;Temp;Humidity;BMP_temperature;BMP_pressure;BME280_temperature;BME280_humidity;BME280_pressure;Samples;Min_cycle;Max_cycle;Signal;HPM_P1;HPM_P2
2021/01/13 00:01:08;;;;;;;16.63;6.13;;;4.50;99.90;;;;;;5075681;28;20184;-63
2021/01/13 00:03:34;;;;;;;14.40;5.80;;;4.60;99.90;;;;;;5075965;28;20192;-63
2021/01/13 00:05:59;;;;;;;16.33;6.17;;;4.60;99.90;;;;;;5075799;28;20197;-64
2021/01/13 00:08:25;;;;;;;14.87;6.23;;;4.50;99.90;;;;;;5075927;28;20181;-63
2021/01/13 00:10:50;;;;;;;12.13;6.13;;;4.40;99.90;;;;;;5075804;28;20532;-62
2021/01/13 00:13:16;;;;;;;16.20;5.43;;;4.40;99.90;;;;;;5075427;28;20177;-63
2021/01/13 00:15:41;;;;;;;17.80;5.87;;;4.40;99.90;;;;;;5075617;28;20193;-63
2021/01/13 00:18:07;;;;;;;18.63;6.43;;;4.40;99.90;;;;;;5075750;28;20644;-63
2021/01/13 00:20:33;;;;;;;15.27;6.10;;;4.50;99.90;;;;;;5075817;28;20204;-63
2021/01/13 00:22:58;;;;;;;13.10;6.43;;;4.50;99.90;;;;;;5075600;28;20167;-63
2021/01/13 00:25:23;;;;;;;11.93;5.73;;;4.40;99.90;;;;;;5075372;28;20624;-63
2021/01/13 00:27:49;;;;;;;17.47;6.20;;;4.40;99.90;;;;;;5075339;28;20224;-63
2021/01/13 00:30:16;;;;;;;16.27;5.90;;;4.40;99.90;;;;;;5075255;28;20178;-63
2021/01/13 00:32:45;;;;;;;10.17;5.17;;;4.40;99.90;;;;;;5075260;28;20214;-63
2021/01/13 00:35:12;;;;;;;16.23;5.60;;;4.50;99.90;;;;;;5075553;28;20418;-64
2021/01/13 00:37:38;;;;;;;15.97;6.30;;;4.60;99.90;;;;;;5075109;28;20429;-63
2021/01/13 00:40:06;;;;;;;13.20;6.47;;;4.50;99.90;;;;;;5075082;28;20418;-64
2021/01/13 00:42:31;;;;;;;11.83;5.50;;;4.50;99.90;;;;;;5075371;28;20544;-64
2021/01/13 00:44:57;;;;;;;10.67;7.23;;;4.40;99.90;;;;;;5075356;28;20515;-63
2021/01/13 00:47:22;;;;;;;13.50;5.23;;;4.40;99.90;;;;;;5074888;28;20601;-63
2021/01/13 00:49:48;;;;;;;13.77;6.00;;;4.30;99.90;;;;;;5075214;28;20170;-63
2021/01/13 00:52:13;;;;;;;15.37;6.37;;;4.30;99.90;;;;;;5075259;28;20248;-63
2021/01/13 00:54:39;;;;;;;21.17;6.60;;;4.30;99.90;;;;;;5074805;28;20659;-64
2021/01/13 00:57:06;;;;;;;13.37;5.33;;;4.30;99.90;;;;;;5075146;28;20302;-64
2021/01/13 00:59:31;;;;;;;18.53;5.30;;;4.30;99.90;;;;;;5074703;28;20487;-63
2021/01/13 01:01:57;;;;;;;23.70;6.53;;;4.30;99.90;;;;;;5074973;28;20438;-62
2021/01/13 01:04:22;;;;;;;17.10;5.77;;;4.30;99.90;;;;;;5074987;28;20182;-62
2021/01/13 01:06:49;;;;;;;17.80;5.47;;;4.20;99.90;;;;;;5074816;28;20236;-62
2021/01/13 01:09:15;;;;;;;9.90;5.20;;;4.30;99.90;;;;;;5074898;28;20170;-63
2021/01/13 01:11:40;;;;;;;13.90;4.90;;;4.20;99.90;;;;;;5074773;28;20999;-62
2021/01/13 01:14:08;;;;;;;19.73;5.33;;;4.20;99.90;;;;;;5074420;28;20459;-62
2021/01/13 01:16:36;;;;;;;12.83;5.27;;;4.20;99.90;;;;;;5074637;28;20588;-62
2021/01/13 01:19:04;;;;;;;12.20;5.37;;;4.30;99.90;;;;;;5074653;28;20424;-63
2021/01/13 01:21:29;;;;;;;12.70;5.67;;;4.40;99.90;;;;;;5074333;28;20939;-62
2021/01/13 01:23:55;;;;;;;18.83;6.50;;;4.30;99.90;;;;;;5074521;28;20418;-62
2021/01/13 01:26:21;;;;;;;14.93;5.60;;;4.30;99.90;;;;;;5074489;28;20212;-64
2021/01/13 01:28:47;;;;;;;16.07;5.30;;;4.20;99.90;;;;;;5074172;28;20197;-63
2021/01/13 01:31:12;;;;;;;11.63;4.80;;;4.00;99.90;;;;;;5074097;28;20212;-62
2021/01/13 01:33:38;;;;;;;15.83;4.87;;;4.00;99.90;;;;;;5074377;28;20418;-62
2021/01/13 01:36:04;;;;;;;10.47;5.07;;;3.90;99.90;;;;;;5074345;28;20624;-63
2021/01/13 01:38:30;;;;;;;17.23;6.13;;;3.90;99.90;;;;;;5074302;28;20578;-63
2021/01/13 01:41:06;;;;;;;10.63;5.50;;;4.00;99.90;;;;;;5073946;28;20511;-63
2021/01/13 01:43:31;;;;;;;15.03;5.03;;;4.00;99.90;;;;;;5074197;28;20427;-63
2021/01/13 01:45:57;;;;;;;16.77;7.77;;;4.00;99.90;;;;;;5074110;28;20475;-62
2021/01/13 01:52:14;;;;;;;9.87;6.07;;;4.00;99.90;;;;;;5073919;28;20526;-63
2021/01/13 01:55:04;;;;;;;13.87;6.00;;;4.00;99.90;;;;;;5074088;28;20485;-62
2021/01/13 01:57:35;;;;;;;18.43;6.17;;;4.00;99.90;;;;;;5073376;28;20498;-62
2021/01/13 02:00:03;;;;;;;12.40;6.20;;;4.00;99.90;;;;;;5074003;28;20415;-62
2021/01/13 02:02:45;;;;;;;12.87;5.60;;;3.90;99.90;;;;;;5073935;28;20833;-62
2021/01/13 02:05:12;;;;;;;13.53;6.10;;;4.10;99.90;;;;;;5073590;28;20474;-62
2021/01/13 02:07:37;;;;;;;11.03;5.93;;;4.00;99.90;;;;;;5073880;28;20800;-62
2021/01/13 02:10:05;;;;;;;11.10;6.00;;;4.00;99.90;;;;;;5073084;28;20422;-63
2021/01/13 02:12:33;;;;;;;11.30;5.63;;;4.10;99.90;;;;;;5073797;28;20184;-62
2021/01/13 02:15:01;;;;;;;9.10;6.30;;;4.10;99.90;;;;;;5073298;28;20461;-63
2021/01/13 02:17:35;;;;;;;14.83;6.00;;;4.00;99.90;;;;;;5073825;28;20418;-64
2021/01/13 02:20:06;;;;;;;10.43;5.50;;;4.10;99.90;;;;;;5073756;28;20399;-64
2021/01/13 02:22:49;;;;;;;21.43;7.13;;;4.00;99.90;;;;;;5073748;28;20428;-64
2021/01/13 06:31:05;;;;;;;12.77;6.97;;;4.50;99.90;;;;;;5815833;23;20500;-64
2021/01/13 06:33:43;;;;;;;16.10;7.40;;;4.50;99.90;;;;;;5073182;28;20423;-65
2021/01/13 06:36:23;;;;;;;13.83;8.60;;;4.50;99.90;;;;;;5073088;28;20431;-65
2021/01/13 06:38:55;;;;;;;13.23;8.47;;;4.50;99.90;;;;;;5073047;28;20479;-65
2021/01/13 06:41:21;;;;;;;18.30;9.33;;;4.30;99.90;;;;;;5089521;22;20483;-65
2021/01/13 06:44:06;;;;;;;10.03;8.37;;;4.40;99.90;;;;;;5087109;28;20440;-65
2021/01/13 06:46:36;;;;;;;17.53;7.40;;;4.50;99.90;;;;;;5080747;28;20472;-65
2021/01/13 06:49:20;;;;;;;20.30;9.17;;;4.50;99.90;;;;;;5072854;28;20424;-65
2021/01/13 06:51:50;;;;;;;13.17;8.53;;;4.50;99.90;;;;;;5072912;28;20429;-65
2021/01/13 06:54:17;;;;;;;23.73;9.63;;;4.50;99.90;;;;;;5072854;28;20413;-65
2021/01/13 06:56:57;;;;;;;17.70;8.73;;;4.60;99.90;;;;;;5081548;28;20507;-65
2021/01/13 06:59:24;;;;;;;9.10;7.37;;;4.70;99.90;;;;;;5067117;28;20430;-66
2021/01/13 07:01:50;;;;;;;11.17;8.60;;;4.70;99.90;;;;;;5056742;28;20431;-65
2021/01/13 07:04:16;;;;;;;16.30;7.37;;;4.70;99.90;;;;;;5056731;28;20440;-65
2021/01/13 07:07:00;;;;;;;12.17;9.33;;;4.70;99.90;;;;;;5056583;28;20476;-65
2021/01/13 07:09:36;;;;;;;17.03;9.00;;;4.70;99.90;;;;;;5072611;28;20264;-65
2021/01/13 07:12:24;;;;;;;12.37;9.90;;;4.60;99.90;;;;;;5055008;28;20945;-65
2021/01/13 07:14:53;;;;;;;14.00;10.43;;;4.70;99.90;;;;;;5065254;28;20472;-65
2021/01/13 07:17:20;;;;;;;21.83;11.20;;;4.70;99.90;;;;;;5056487;28;20423;-65
2021/01/13 07:19:49;;;;;;;19.17;11.88;;;4.80;99.90;;;;;;5054844;28;20427;-64
2021/01/13 07:22:16;;;;;;;19.20;12.77;;;4.80;99.90;;;;;;5055531;28;20591;-65
2021/01/13 07:24:43;;;;;;;17.47;12.60;;;4.60;99.90;;;;;;5083218;28;20457;-63
2021/01/13 07:27:10;;;;;;;24.53;12.20;;;4.60;99.90;;;;;;5067750;28;20475;-63
2021/01/13 07:29:36;;;;;;;17.60;11.17;;;4.60;99.90;;;;;;5074763;28;20484;-63
2021/01/13 07:32:04;;;;;;;24.93;11.67;;;4.70;99.90;;;;;;5083789;28;20430;-63
2021/01/13 07:34:39;;;;;;;28.97;11.00;;;4.60;99.90;;;;;;5085178;28;20177;-63
2021/01/13 07:37:22;;;;;;;17.50;11.07;;;4.60;99.90;;;;;;5081592;28;20435;-63
2021/01/13 07:40:18;;;;;;;18.57;11.10;;;4.80;99.90;;;;;;5074501;28;20440;-63
2021/01/13 07:42:45;;;;;;;21.30;10.67;;;4.70;99.90;;;;;;5074972;28;20447;-62
2021/01/13 07:45:19;;;;;;;14.83;10.93;;;4.60;99.90;;;;;;5075080;28;20514;-62
2021/01/13 07:51:50;;;;;;;27.17;12.17;;;4.50;99.90;;;;;;5076085;28;20409;-65
2021/01/13 07:54:35;;;;;;;23.97;11.50;;;4.60;99.90;;;;;;5075887;28;20428;-63
2021/01/13 08:00:39;;;;;;;33.83;11.67;;;4.70;99.90;;;;;;5075875;28;20404;-64
2021/01/13 08:03:35;;;;;;;19.47;10.70;;;4.70;99.90;;;;;;5076083;28;20423;-63
2021/01/13 08:06:27;;;;;;;15.27;9.90;;;4.70;99.90;;;;;;5076005;28;20482;-63
2021/01/13 08:09:09;;;;;;;19.40;11.33;;;4.60;99.90;;;;;;5074811;28;20841;-65
2021/01/13 08:15:22;;;;;;;21.97;12.23;;;4.70;99.90;;;;;;5075628;28;20554;-65
2021/01/13 08:18:12;;;;;;;17.90;10.93;;;4.70;99.90;;;;;;5075381;28;20421;-65
2021/01/13 08:24:14;;;;;;;16.57;12.37;;;4.70;99.90;;;;;;5075452;28;20408;-65
2021/01/13 08:26:41;;;;;;;22.37;11.20;;;4.70;99.90;;;;;;5075593;28;20457;-65
2021/01/13 08:32:41;;;;;;;19.30;10.13;;;4.60;99.90;;;;;;5075305;28;20400;-65
2021/01/13 08:35:08;;;;;;;17.27;10.63;;;4.70;99.90;;;;;;5075527;28;20418;-65
2021/01/13 08:37:35;;;;;;;21.30;10.93;;;4.80;99.90;;;;;;5075413;28;20423;-65
2021/01/13 08:40:28;;;;;;;15.57;9.07;;;4.80;99.90;;;;;;5074962;28;20438;-64
2021/01/13 08:43:24;;;;;;;17.63;10.77;;;4.70;99.90;;;;;;5075327;28;20844;-65
2021/01/13 08:45:52;;;;;;;23.70;9.67;;;4.70;99.90;;;;;;5065792;28;20471;-65
2021/01/13 08:48:21;;;;;;;16.97;9.33;;;4.70;99.90;;;;;;5075189;28;20416;-65
2021/01/13 08:51:05;;;;;;;16.07;10.37;;;4.80;99.90;;;;;;5075140;28;20434;-65
2021/01/13 08:53:31;;;;;;;18.20;9.40;;;4.80;99.90;;;;;;5075087;28;20430;-65
2021/01/13 08:55:58;;;;;;;16.83;9.90;;;4.80;99.90;;;;;;5075118;28;20825;-65
2021/01/13 08:58:27;;;;;;;19.20;8.70;;;4.90;99.90;;;;;;5074579;28;20961;-66
2021/01/13 09:01:08;;;;;;;12.00;7.37;;;4.90;99.90;;;;;;5074947;28;20458;-65
2021/01/13 09:07:02;;;;;;;15.73;7.90;;;4.90;99.90;;;;;;5074518;28;20524;-65
2021/01/13 09:12:49;;;;;;;21.13;10.53;;;4.90;99.90;;;;;;5074470;28;20454;-64
2021/01/13 09:15:28;;;;;;;21.80;9.77;;;4.90;99.90;;;;;;5074642;28;20434;-65
2021/01/13 09:21:17;;;;;;;14.53;7.87;;;5.00;99.90;;;;;;5074185;28;21036;-64
2021/01/13 09:23:55;;;;;;;15.13;8.93;;;5.00;99.90;;;;;;5074553;28;20440;-65
2021/01/13 09:26:27;;;;;;;10.00;7.63;;;5.10;99.90;;;;;;5073397;28;20470;-64
2021/01/13 09:29:10;;;;;;;13.13;9.10;;;4.90;99.90;;;;;;5074451;28;20407;-64
2021/01/13 09:31:38;;;;;;;22.23;10.13;;;5.00;99.90;;;;;;5074419;28;20419;-64
2021/01/13 09:37:26;;;;;;;17.77;8.93;;;5.10;99.90;;;;;;5074003;28;20445;-64
2021/01/13 09:39:57;;;;;;;13.23;9.87;;;5.20;99.90;;;;;;5073833;28;20431;-64
2021/01/13 09:42:39;;;;;;;12.43;9.13;;;5.10;99.90;;;;;;5074159;28;20519;-67
2021/01/13 09:48:28;;;;;;;17.47;10.73;;;5.10;99.90;;;;;;5073820;28;20790;-66
2021/01/13 09:51:06;;;;;;;21.53;10.80;;;5.20;99.90;;;;;;5073615;28;20417;-65
2021/01/13 09:53:46;;;;;;;16.83;11.60;;;5.10;99.90;;;;;;5073689;28;20469;-67
2021/01/13 09:59:36;;;;;;;20.53;11.73;;;5.10;99.90;;;;;;5073928;28;20494;-64
2021/01/13 10:02:02;;;;;;;12.80;10.50;;;5.00;99.90;;;;;;5073847;28;20412;-65
2021/01/13 10:04:28;;;;;;;19.03;10.23;;;5.10;99.90;;;;;;5073841;28;20427;-65
2021/01/13 10:06:56;;;;;;;21.83;11.13;;;5.10;99.90;;;;;;5073755;28;20206;-65
2021/01/13 10:09:22;;;;;;;16.70;11.10;;;5.10;99.90;;;;;;5073737;28;20520;-64
2021/01/13 10:11:54;;;;;;;14.50;10.40;;;5.10;99.90;;;;;;5073700;28;20439;-64
2021/01/13 10:17:43;;;;;;;17.30;9.57;;;5.30;99.90;;;;;;5074064;28;20454;-65
2021/01/13 10:23:31;;;;;;;18.57;8.90;;;5.20;99.90;;;;;;5073471;28;20431;-63
2021/01/13 10:29:22;;;;;;;12.30;9.23;;;5.40;99.90;;;;;;5073421;28;20433;-64
2021/01/13 10:31:49;;;;;;;23.13;9.97;;;5.30;99.90;;;;;;5072977;28;20415;-65
2021/01/13 10:37:40;;;;;;;22.80;10.37;;;5.40;99.90;;;;;;5073372;28;20455;-64
2021/01/13 10:40:08;;;;;;;17.53;10.30;;;5.50;99.90;;;;;;5072123;28;20507;-64
2021/01/13 10:42:39;;;;;;;16.20;10.00;;;5.60;99.90;;;;;;5073263;28;20428;-64
2021/01/13 10:45:13;;;;;;;14.70;10.80;;;5.70;99.90;;;;;;5073203;28;20419;-64
2021/01/13 10:48:12;;;;;;;15.93;10.40;;;5.80;99.90;;;;;;5072994;28;20482;-64
2021/01/13 10:50:41;;;;;;;16.20;9.40;;;5.70;99.90;;;;;;5064255;28;20820;-63
2021/01/13 10:53:08;;;;;;;22.30;11.33;;;6.00;99.90;;;;;;5073459;28;20409;-64
2021/01/13 10:55:43;;;;;;;19.30;11.40;;;6.00;99.90;;;;;;5073675;28;20412;-64
2021/01/13 10:58:10;;;;;;;19.77;11.60;;;6.00;99.90;;;;;;5073111;28;20459;-65
2021/01/13 11:00:36;;;;;;;13.40;11.97;;;6.10;99.90;;;;;;5073036;28;20423;-64
2021/01/13 11:06:24;;;;;;;14.33;10.20;;;6.10;99.90;;;;;;5073333;28;20787;-64
2021/01/13 11:12:18;;;;;;;19.50;12.43;;;6.40;99.90;;;;;;5072970;28;20411;-63
2021/01/13 11:14:47;;;;;;;20.07;11.47;;;6.60;99.90;;;;;;5072928;28;20782;-63
2021/01/13 11:17:15;;;;;;;22.63;10.80;;;6.60;99.90;;;;;;5073157;28;20432;-63
2021/01/13 11:19:47;;;;;;;15.03;9.97;;;6.50;99.90;;;;;;5072846;28;20423;-64
2021/01/13 11:25:37;;;;;;;19.20;11.40;;;6.70;99.90;;;;;;5073100;28;20503;-63
2021/01/13 11:28:13;;;;;;;17.30;12.00;;;6.90;99.90;;;;;;5071984;28;20462;-63
2021/01/13 11:34:02;;;;;;;17.40;10.80;;;6.70;99.90;;;;;;5072849;28;20453;-64
2021/01/13 11:40:05;;;;;;;17.43;11.23;;;6.70;99.90;;;;;;5072518;28;20458;-63
2021/01/13 11:43:01;;;;;;;15.67;11.30;;;6.70;99.90;;;;;;5072270;28;20935;-65
2021/01/13 11:45:30;;;;;;;27.30;12.90;;;6.70;99.90;;;;;;5076100;28;20941;-64
2021/01/13 11:48:04;;;;;;;21.53;11.70;;;6.50;99.90;;;;;;5076295;28;20432;-64
2021/01/13 11:53:52;;;;;;;20.17;12.37;;;6.60;99.90;;;;;;5076163;28;20831;-63
2021/01/13 11:56:27;;;;;;;16.70;11.83;;;6.60;99.90;;;;;;5076357;28;20427;-63
2021/01/13 11:58:53;;;;;;;14.77;11.23;;;6.60;99.90;;;;;;5076311;28;20447;-64
2021/01/13 12:01:20;;;;;;;24.53;12.40;;;6.60;99.90;;;;;;5076195;28;21069;-64
2021/01/13 12:03:45;;;;;;;21.63;11.40;;;6.60;99.90;;;;;;5076226;28;20186;-63
2021/01/13 12:06:11;;;;;;;14.17;10.83;;;6.50;99.90;;;;;;5076080;28;20453;-64
2021/01/13 12:11:58;;;;;;;19.20;11.67;;;6.40;99.90;;;;;;5075859;28;20728;-64
2021/01/13 12:14:24;;;;;;;16.53;11.30;;;6.30;99.90;;;;;;5076014;28;20500;-63
2021/01/13 12:17:01;;;;;;;19.70;11.63;;;6.40;99.90;;;;;;5075659;28;20172;-64
2021/01/13 12:19:40;;;;;;;17.83;9.77;;;6.40;99.90;;;;;;5076024;28;20214;-63
2021/01/13 12:22:06;;;;;;;22.03;11.90;;;6.40;99.90;;;;;;5075934;28;20528;-64
2021/01/13 12:24:42;;;;;;;21.73;12.17;;;6.20;99.90;;;;;;5075837;28;20440;-64
2021/01/13 12:30:29;;;;;;;16.90;10.87;;;6.20;99.90;;;;;;5075437;28;20408;-64
2021/01/13 12:32:56;;;;;;;18.33;10.10;;;6.20;99.90;;;;;;5074038;28;20786;-64
2021/01/13 12:35:28;;;;;;;18.13;12.17;;;6.20;99.90;;;;;;5075278;28;20641;-64
2021/01/13 12:37:54;;;;;;;20.73;12.40;;;6.10;99.90;;;;;;5075607;28;20900;-64
2021/01/13 12:40:33;;;;;;;17.20;12.00;;;6.10;99.90;;;;;;5075228;28;20547;-63
2021/01/13 12:43:14;;;;;;;14.60;10.30;;;6.20;99.90;;;;;;5075501;28;20272;-64
2021/01/13 12:45:40;;;;;;;22.10;11.87;;;6.20;99.90;;;;;;5075292;28;20424;-64
2021/01/13 12:48:06;;;;;;;15.87;12.33;;;6.20;99.90;;;;;;5075253;28;20428;-64
2021/01/13 12:50:32;;;;;;;14.83;10.53;;;6.00;99.90;;;;;;5075281;28;20177;-64
2021/01/13 12:52:57;;;;;;;18.03;12.23;;;6.00;99.90;;;;;;5075382;28;20432;-64
2021/01/13 12:58:45;;;;;;;14.90;10.27;;;5.90;99.90;;;;;;5074845;28;20162;-64
2021/01/13 13:01:10;;;;;;;14.83;10.60;;;6.10;99.90;;;;;;5075066;28;20417;-64
2021/01/13 13:06:57;;;;;;;12.17;9.60;;;6.20;99.90;;;;;;5074635;28;20297;-64
2021/01/13 13:09:23;;;;;;;16.70;10.10;;;6.30;99.90;;;;;;5074881;28;20622;-63
2021/01/13 13:11:51;;;;;;;12.43;8.83;;;6.10;99.90;;;;;;5074469;28;20288;-63
2021/01/13 13:14:16;;;;;;;11.40;9.70;;;6.00;99.90;;;;;;5074750;28;20517;-64
2021/01/13 13:16:43;;;;;;;14.00;9.57;;;6.20;99.90;;;;;;5073555;28;20860;-64
2021/01/13 13:19:09;;;;;;;14.20;9.37;;;6.20;99.90;;;;;;5074652;28;20171;-64
2021/01/13 13:21:35;;;;;;;11.20;10.00;;;6.30;99.90;;;;;;5074372;28;20527;-65
2021/01/13 13:27:23;;;;;;;17.70;10.93;;;6.30;99.90;;;;;;5074203;28;20212;-64
2021/01/13 13:29:48;;;;;;;20.40;11.30;;;6.30;99.90;;;;;;5074088;28;20795;-64
2021/01/13 13:32:14;;;;;;;11.53;9.93;;;6.30;99.90;;;;;;5074419;28;20174;-64
2021/01/13 13:34:40;;;;;;;13.80;10.00;;;6.40;99.90;;;;;;5074001;28;20190;-64
2021/01/13 13:37:05;;;;;;;21.60;11.07;;;6.40;99.90;;;;;;5072724;28;20429;-64
2021/01/13 13:39:31;;;;;;;13.73;10.70;;;6.40;99.90;;;;;;5073980;28;20171;-66
2021/01/13 13:42:00;;;;;;;13.80;10.13;;;6.30;99.90;;;;;;5073749;28;20225;-65
2021/01/13 13:47:47;;;;;;;17.90;11.10;;;6.40;99.90;;;;;;5073704;28;20534;-64
2021/01/13 13:50:13;;;;;;;12.60;11.30;;;6.40;99.90;;;;;;5074062;28;20862;-64
2021/01/13 13:52:38;;;;;;;16.47;12.17;;;6.40;99.90;;;;;;5073999;28;20293;-63
2021/01/13 13:55:05;;;;;;;16.90;10.57;;;6.40;99.90;;;;;;5073621;28;20174;-64
2021/01/13 13:57:30;;;;;;;17.47;11.70;;;6.40;99.90;;;;;;5073733;28;20170;-66
2021/01/13 14:03:17;;;;;;;21.00;11.60;;;6.40;99.90;;;;;;5073917;28;20640;-64
2021/01/13 14:05:43;;;;;;;14.83;10.77;;;6.40;99.90;;;;;;5073117;28;20426;-65
2021/01/13 14:08:08;;;;;;;18.27;11.10;;;6.50;99.90;;;;;;5073528;28;20257;-66
2021/01/13 14:10:34;;;;;;;19.93;10.87;;;6.50;99.90;;;;;;5073490;28;20197;-65
2021/01/13 14:13:00;;;;;;;18.23;11.00;;;6.60;99.90;;;;;;5073759;28;20185;-64
2021/01/13 14:15:25;;;;;;;23.60;11.53;;;6.50;99.90;;;;;;5073712;28;20528;-65
2021/01/13 14:21:14;;;;;;;14.83;10.20;;;6.40;99.90;;;;;;5073453;28;20162;-65
2021/01/13 14:27:01;;;;;;;17.53;11.57;;;6.40;99.90;;;;;;5073108;28;20475;-65
2021/01/13 14:32:52;;;;;;;14.13;10.23;;;6.50;99.90;;;;;;5073341;28;20181;-65
2021/01/13 14:35:19;;;;;;;15.13;11.10;;;6.50;99.90;;;;;;5073477;28;20435;-64
2021/01/13 14:37:48;;;;;;;15.53;9.80;;;6.40;99.90;;;;;;5073409;28;20424;-65
2021/01/13 14:40:14;;;;;;;19.43;9.07;;;6.40;99.90;;;;;;5073280;28;20469;-64
2021/01/13 14:46:02;;;;;;;14.93;9.93;;;6.30;99.90;;;;;;5073088;28;20521;-65
2021/01/13 14:48:28;;;;;;;16.63;11.50;;;6.30;99.90;;;;;;5073356;28;20428;-64
2021/01/13 14:50:54;;;;;;;13.50;10.00;;;6.20;99.90;;;;;;5073339;28;20435;-64
2021/01/13 14:53:19;;;;;;;22.03;10.87;;;6.30;99.90;;;;;;5073089;28;20687;-65
2021/01/13 14:55:45;;;;;;;14.77;9.83;;;6.20;99.90;;;;;;5073325;28;20552;-65
2021/01/13 14:58:10;;;;;;;22.10;9.80;;;6.30;99.90;;;;;;5073303;28;20175;-65
2021/01/13 15:00:36;;;;;;;12.07;8.90;;;6.30;99.90;;;;;;5073289;28;20171;-65
2021/01/13 15:03:01;;;;;;;12.67;11.37;;;6.40;99.90;;;;;;5073299;28;20675;-66
2021/01/13 15:05:27;;;;;;;26.17;10.00;;;6.40;99.90;;;;;;5073296;28;20178;-65
2021/01/13 15:07:52;;;;;;;16.80;9.90;;;6.40;99.90;;;;;;5073200;28;20267;-62
2021/01/13 15:10:18;;;;;;;17.50;9.87;;;6.40;99.90;;;;;;5073134;28;20170;-62
2021/01/13 15:12:44;;;;;;;18.37;8.90;;;6.40;99.90;;;;;;5073173;28;20197;-62
2021/01/13 15:15:11;;;;;;;13.03;8.63;;;6.30;99.90;;;;;;5073138;28;20207;-63
2021/01/13 15:20:59;;;;;;;15.30;9.20;;;6.40;99.90;;;;;;5076592;28;20399;-70
2021/01/13 15:23:25;;;;;;;10.60;8.37;;;6.40;99.90;;;;;;5076464;28;20417;-63
2021/01/13 15:25:51;;;;;;;14.90;10.00;;;6.40;99.90;;;;;;5076587;28;20425;-63
2021/01/13 15:28:17;;;;;;;14.50;8.70;;;6.40;99.90;;;;;;5076701;28;20180;-65
2021/01/13 15:30:43;;;;;;;11.47;9.53;;;6.40;99.90;;;;;;5076600;28;20185;-67
2021/01/13 15:33:08;;;;;;;13.37;9.07;;;6.40;99.90;;;;;;5076221;28;20915;-65
2021/01/13 15:35:36;;;;;;;12.30;8.90;;;6.40;99.90;;;;;;5076376;28;20177;-65
2021/01/13 15:38:02;;;;;;;12.50;9.40;;;6.40;99.90;;;;;;5076605;28;20178;-64
2021/01/13 15:40:27;;;;;;;23.00;9.97;;;6.40;99.90;;;;;;5076289;28;20977;-64
2021/01/13 15:42:53;;;;;;;17.00;11.30;;;6.40;99.90;;;;;;5076524;28;20227;-64
2021/01/13 15:48:41;;;;;;;14.33;8.97;;;6.30;99.90;;;;;;5076208;28;20779;-63
2021/01/13 15:51:07;;;;;;;14.43;9.33;;;6.10;99.90;;;;;;5076783;28;20424;-65
2021/01/13 15:53:32;;;;;;;18.60;8.73;;;6.20;99.90;;;;;;5076988;28;20277;-70
2021/01/13 15:55:58;;;;;;;8.13;7.37;;;6.30;99.90;;;;;;5075958;28;20212;-62
2021/01/13 15:58:30;;;;;;;20.80;10.07;;;6.30;99.90;;;;;;5076284;28;20181;-63
2021/01/13 16:00:56;;;;;;;14.93;8.80;;;6.30;99.90;;;;;;5075883;28;20690;-63
2021/01/13 16:03:23;;;;;;;15.50;8.13;;;6.30;99.90;;;;;;5076028;28;20472;-63
2021/01/13 16:05:49;;;;;;;12.50;9.57;;;6.20;99.90;;;;;;5075777;28;20471;-63
2021/01/13 16:08:15;;;;;;;14.90;9.40;;;6.20;99.90;;;;;;5076457;28;20525;-64
2021/01/13 16:14:03;;;;;;;23.73;10.73;;;6.40;99.90;;;;;;5075774;28;20162;-66
2021/01/13 16:16:29;;;;;;;15.47;10.47;;;6.40;99.90;;;;;;5075921;28;20474;-64
2021/01/13 16:18:56;;;;;;;18.00;11.10;;;6.20;99.90;;;;;;5075805;28;20433;-65
2021/01/13 16:21:22;;;;;;;20.77;10.53;;;6.00;99.90;;;;;;5076035;28;20643;-64
2021/01/13 16:23:48;;;;;;;18.93;10.20;;;6.10;99.90;;;;;;5075761;28;20424;-64
2021/01/13 16:26:14;;;;;;;20.80;10.57;;;6.10;99.90;;;;;;5075712;28;20194;-65
2021/01/13 16:28:41;;;;;;;17.07;11.83;;;6.00;99.90;;;;;;5075147;28;20300;-64
2021/01/13 16:31:07;;;;;;;15.93;11.20;;;6.00;99.90;;;;;;5075252;28;20771;-64
2021/01/13 16:33:39;;;;;;;14.67;9.90;;;6.10;99.90;;;;;;5075629;28;20427;-66
2021/01/13 16:39:26;;;;;;;14.77;10.50;;;6.10;99.90;;;;;;5075865;28;20176;-70
2021/01/13 16:41:55;;;;;;;20.70;10.93;;;6.20;99.90;;;;;;5075216;28;20974;-73
2021/01/13 16:44:22;;;;;;;11.07;6.90;;;6.30;99.90;;;;;;5075619;28;20177;-69
2021/01/13 16:46:49;;;;;;;18.73;8.17;;;7.20;99.90;;;;;;5075346;28;20825;-69
2021/01/13 16:49:15;;;;;;;14.70;9.00;;;8.50;99.90;;;;;;5074053;28;20989;-70
2021/01/13 16:55:05;;;;;;;14.03;7.97;;;8.90;99.90;;;;;;5075518;28;20443;-70
2021/01/13 16:57:32;;;;;;;16.60;9.90;;;8.80;99.90;;;;;;5075429;28;20455;-71
2021/01/13 17:00:07;;;;;;;11.20;8.67;;;8.90;99.90;;;;;;5075397;28;20448;-76
2021/01/13 17:02:52;;;;;;;18.70;8.70;;;8.50;99.90;;;;;;5077903;28;20460;-75
2021/01/13 17:05:19;;;;;;;21.23;8.33;;;8.70;99.90;;;;;;5075228;28;20895;-74
2021/01/13 17:07:45;;;;;;;14.10;8.17;;;9.20;99.90;;;;;;5075880;28;20551;-74
2021/01/13 17:10:22;;;;;;;18.30;7.40;;;9.10;99.90;;;;;;5075509;28;20474;-74
2021/01/13 17:12:49;;;;;;;11.63;8.23;;;9.60;99.90;;;;;;5075479;28;20437;-75
2021/01/13 17:15:17;;;;;;;14.37;8.17;;;9.40;99.90;;;;;;5074495;28;20938;-74
2021/01/13 17:17:43;;;;;;;15.53;9.27;;;8.80;99.90;;;;;;5074354;28;20429;-75
2021/01/13 17:20:14;;;;;;;16.83;8.40;;;8.30;99.90;;;;;;5074146;28;20475;-74
2021/01/13 17:22:40;;;;;;;17.93;9.00;;;7.90;99.90;;;;;;5075311;28;20412;-75
2021/01/13 17:25:11;;;;;;;32.20;12.17;;;7.70;99.90;;;;;;5074223;28;20424;-73
2021/01/13 17:27:38;;;;;;;14.30;8.80;;;7.40;99.90;;;;;;5074246;28;20972;-74
2021/01/13 17:30:09;;;;;;;13.87;10.13;;;7.20;99.90;;;;;;5074130;28;20424;-74
2021/01/13 17:32:35;;;;;;;14.50;9.97;;;7.00;99.90;;;;;;5074023;28;20432;-74
2021/01/13 17:38:24;;;;;;;14.10;9.87;;;6.80;99.90;;;;;;5074441;28;20404;-74
2021/01/13 17:40:49;;;;;;;11.77;9.37;;;6.70;99.90;;;;;;5073886;28;20510;-74
2021/01/13 17:46:37;;;;;;;19.67;9.10;;;6.70;99.90;;;;;;5073848;28;20194;-74
2021/01/13 17:52:24;;;;;;;15.90;8.67;;;6.60;99.90;;;;;;5073894;28;20536;-74
2021/01/13 17:58:12;;;;;;;14.00;7.70;;;6.40;99.90;;;;;;5073716;28;20258;-74
2021/01/13 18:04:02;;;;;;;13.17;9.83;;;6.30;99.90;;;;;;5073678;28;20211;-73
2021/01/13 18:06:28;;;;;;;17.23;8.37;;;6.30;99.90;;;;;;5073772;28;20522;-73
2021/01/13 18:08:53;;;;;;;17.03;8.43;;;6.30;99.90;;;;;;5073853;28;20487;-86
2021/01/13 18:11:19;;;;;;;15.00;7.87;;;6.30;99.90;;;;;;5073769;28;20174;-73
2021/01/13 18:17:06;;;;;;;10.77;7.90;;;6.20;99.90;;;;;;5073689;28;20199;-73
2021/01/13 18:22:54;;;;;;;11.33;7.10;;;6.20;99.90;;;;;;5073451;28;20160;-73
2021/01/13 18:25:19;;;;;;;10.00;7.30;;;6.20;99.90;;;;;;5073596;28;20432;-72
2021/01/13 18:31:07;;;;;;;15.53;7.50;;;6.10;99.90;;;;;;5073354;28;20165;-72
2021/01/13 18:33:32;;;;;;;15.60;6.73;;;6.00;99.90;;;;;;5073531;28;20963;-72
2021/01/13 18:35:58;;;;;;;29.87;7.90;;;6.00;99.90;;;;;;5073494;28;20177;-72
2021/01/13 18:41:46;;;;;;;11.17;6.70;;;6.00;99.90;;;;;;5065756;28;20631;-74
2021/01/13 18:44:15;;;;;;;15.40;6.60;;;6.00;99.90;;;;;;5073535;28;20420;-73
2021/01/13 18:46:42;;;;;;;12.77;7.63;;;6.10;99.90;;;;;;5073416;28;20810;-72
2021/01/13 18:52:29;;;;;;;11.43;5.80;;;6.00;99.90;;;;;;5074307;28;20439;-73
2021/01/13 18:54:55;;;;;;;11.53;5.77;;;6.00;99.90;;;;;;5077089;28;20449;-72
2021/01/13 18:57:20;;;;;;;12.53;6.33;;;6.10;99.90;;;;;;5077463;28;20166;-74
2021/01/13 18:59:46;;;;;;;14.07;6.33;;;6.10;99.90;;;;;;5077413;28;20201;-74
2021/01/13 19:02:11;;;;;;;11.47;7.30;;;6.00;99.90;;;;;;5077003;28;20212;-72
2021/01/13 19:04:37;;;;;;;13.93;6.33;;;6.00;99.90;;;;;;5077279;28;20257;-75
2021/01/13 19:07:03;;;;;;;10.27;6.20;;;6.00;99.90;;;;;;5076900;28;20194;-77
2021/01/13 19:09:28;;;;;;;9.77;5.00;;;6.10;99.90;;;;;;5077110;28;20178;-68
2021/01/13 19:15:16;;;;;;;10.57;4.37;;;6.00;99.90;;;;;;5076694;28;20166;-68
2021/01/13 19:17:41;;;;;;;17.10;4.90;;;6.10;99.90;;;;;;5075403;28;20943;-68
2021/01/13 19:23:29;;;;;;;11.33;3.90;;;6.20;99.90;;;;;;5076636;28;20188;-68
2021/01/13 19:25:54;;;;;;;12.57;3.90;;;6.10;99.90;;;;;;5076457;28;20432;-68
2021/01/13 19:31:42;;;;;;;9.27;4.10;;;6.20;99.90;;;;;;5076608;28;20166;-69
2021/01/13 19:34:10;;;;;;;7.77;4.60;;;6.30;99.90;;;;;;5076687;28;20412;-68
2021/01/13 19:36:35;;;;;;;12.03;4.20;;;6.40;99.90;;;;;;5076289;28;20179;-68
2021/01/13 19:42:23;;;;;;;10.73;4.67;;;6.20;99.90;;;;;;5069886;28;20236;-65
2021/01/13 19:44:48;;;;;;;14.10;5.00;;;6.20;99.90;;;;;;5076144;28;20435;-68
2021/01/13 19:47:14;;;;;;;17.33;5.83;;;6.20;99.90;;;;;;5076431;28;20225;-67
2021/01/13 19:49:39;;;;;;;11.03;4.57;;;6.20;99.90;;;;;;5076090;28;20201;-68
2021/01/13 19:55:27;;;;;;;11.50;4.67;;;6.20;99.90;;;;;;5076182;28;20215;-68
2021/01/13 20:01:14;;;;;;;14.07;5.13;;;6.20;99.90;;;;;;5075990;28;20694;-67